createdAt,value
2023-02-01T00:13:41.277Z,2.59
2023-02-01T00:28:47.224Z,2.60
2023-02-01T00:43:52.229Z,2.81
2023-02-01T00:58:56.796Z,3.06
2023-02-01T01:14:02.036Z,3.18
2023-02-01T01:29:06.272Z,3.06
2023-02-01T01:44:29.844Z,3.03
2023-02-01T01:59:34.240Z,3.04
2023-02-01T02:14:39.043Z,3.08
2023-02-01T02:30:01.993Z,3.16
2023-02-01T02:45:28.445Z,3.22
2023-02-01T03:00:52.711Z,3.20
2023-02-01T03:16:17.657Z,3.22
2023-02-01T03:31:22.291Z,3.18
2023-02-01T03:46:37.614Z,3.14
2023-02-01T04:01:42.179Z,3.23
2023-02-01T04:16:47.716Z,3.19
2023-02-01T04:31:52.243Z,3.26
2023-02-01T04:46:57.082Z,3.32
2023-02-01T05:02:01.584Z,3.35
2023-02-01T05:17:06.315Z,3.39
2023-02-01T05:32:21.636Z,3.42
2023-02-01T05:47:27.318Z,3.41
2023-02-01T06:02:31.638Z,3.40
2023-02-01T06:17:36.144Z,3.37
2023-02-01T06:32:41.627Z,3.30
2023-02-01T06:47:46.317Z,3.22
2023-02-01T07:02:50.678Z,3.01
2023-02-01T07:17:58.348Z,2.99
2023-02-01T07:33:03.392Z,3.02
2023-02-01T07:48:08.358Z,3.08
2023-02-01T08:03:12.805Z,3.06
2023-02-01T08:18:19.207Z,2.94
2023-02-01T08:33:24.131Z,2.77
2023-02-01T08:48:29.792Z,2.59
2023-02-01T09:03:34.523Z,2.61
2023-02-01T09:18:46.104Z,2.66
2023-02-01T09:34:01.101Z,2.64
2023-02-01T09:49:11.541Z,2.80
2023-02-01T10:04:16.144Z,3.05
2023-02-01T10:19:30.520Z,2.89
2023-02-01T10:34:35.550Z,2.81
2023-02-01T10:49:41.970Z,2.73
2023-02-01T11:04:46.130Z,2.66
2023-02-01T11:20:00.258Z,2.86
2023-02-01T11:35:05.567Z,3.05
2023-02-01T11:50:20.187Z,3.15
2023-02-01T12:05:27.605Z,3.35
2023-02-01T12:20:37.878Z,3.35
2023-02-01T12:35:45.417Z,3.26
2023-02-01T12:50:52.074Z,3.40
2023-02-01T13:06:08.643Z,3.54
2023-02-01T13:21:16.384Z,3.70
2023-02-01T13:36:24.295Z,3.74
2023-02-01T13:51:36.843Z,3.57
2023-02-01T14:06:45.126Z,3.74
2023-02-01T14:21:50.529Z,3.76
2023-02-01T14:37:00.276Z,3.41
2023-02-01T14:52:06.833Z,3.00
2023-02-01T15:07:13.182Z,2.71
2023-02-01T15:22:20.005Z,2.60
2023-02-01T15:37:24.301Z,2.21
2023-02-01T15:52:35.269Z,2.19
2023-02-01T16:07:41.548Z,2.26
2023-02-01T16:22:46.432Z,2.32
2023-02-01T16:37:50.677Z,2.66
2023-02-01T16:52:59.721Z,3.03
2023-02-01T17:08:08.555Z,3.07
2023-02-01T17:23:23.881Z,2.92
2023-02-01T17:38:28.733Z,2.77
2023-02-01T17:53:36.142Z,2.63
2023-02-01T18:08:40.855Z,2.57
2023-02-01T18:23:46.764Z,2.60
2023-02-01T18:38:51.863Z,2.57
2023-02-01T19:16:54.282Z,2.65
2023-02-01T19:32:08.801Z,2.48
2023-02-01T19:47:30.399Z,2.38
2023-02-01T20:02:58.751Z,2.33
2023-02-01T20:18:27.360Z,2.31
2023-02-01T20:33:45.017Z,2.27
2023-02-01T20:49:19.446Z,2.16
2023-02-01T21:05:04.738Z,2.03
2023-02-01T21:20:28.532Z,1.97
2023-02-01T21:35:54.730Z,2.01
2023-02-01T21:52:00.326Z,2.04
2023-02-01T22:07:54.584Z,2.02
